Time;durP1;ratioP1;P1;durP2;ratioP2;P2;SDS_P1;SDS_P2;PMS_P1;PMS_P2;Temp;Humidity;BMP_temperature;BMP_pressure;BME280_temperature;BME280_humidity;BME280_pressure;Samples;Min_cycle;Max_cycle;Signal;HPM_P1;HPM_P2
2022/06/20 00:01:21;;;;;;;12.57;3.80;;;;;;;13.93;100.00;100409.66;6138732;28;20462;-93
2022/06/20 00:04:23;;;;;;;5.53;2.95;;;;;;;13.96;100.00;100410.22;6134430;28;20508;-96
2022/06/20 00:07:24;;;;;;;9.35;4.30;;;;;;;13.76;100.00;100450.28;6140273;28;20047;-91
2022/06/20 00:10:29;;;;;;;6.15;2.83;;;;;;;13.72;100.00;100438.53;6128829;28;20036;-92
2022/06/20 00:13:33;;;;;;;6.78;3.25;;;;;;;13.71;100.00;100422.13;6135909;28;20051;-93
2022/06/20 00:16:35;;;;;;;4.60;2.92;;;;;;;13.67;100.00;100431.16;6130727;28;20437;-91
2022/06/20 00:19:38;;;;;;;17.67;4.35;;;;;;;13.69;100.00;100395.41;6137885;28;20046;-92
2022/06/20 00:22:40;;;;;;;7.45;3.72;;;;;;;13.77;100.00;100381.69;6124992;28;20058;-90
2022/06/20 00:25:42;;;;;;;13.20;3.30;;;;;;;13.76;100.00;100364.41;6143287;28;20051;-92
2022/06/20 00:28:45;;;;;;;7.68;3.25;;;;;;;13.71;100.00;100351.03;6125533;28;20036;-90
2022/06/20 00:31:47;;;;;;;13.38;3.70;;;;;;;13.73;100.00;100331.72;6129504;28;20078;-91
2022/06/20 00:34:49;;;;;;;5.45;3.47;;;;;;;13.74;100.00;100285.72;6130674;28;20050;-91
2022/06/20 00:37:55;;;;;;;17.50;4.13;;;;;;;13.78;100.00;100290.47;6138224;28;20496;-89
2022/06/20 00:41:19;;;;;;;15.32;3.67;;;;;;;13.85;100.00;100284.69;6118815;28;20146;-90
2022/06/20 00:44:41;;;;;;;5.82;2.80;;;;;;;13.81;100.00;100278.94;6128236;28;20147;-90
2022/06/20 00:47:45;;;;;;;6.68;2.85;;;;;;;13.78;100.00;100282.66;6141923;28;20520;-89
2022/06/20 00:50:49;;;;;;;6.95;3.08;;;;;;;13.77;100.00;100269.81;6137082;28;20501;-90
2022/06/20 00:54:01;;;;;;;12.38;3.53;;;;;;;13.68;100.00;100255.09;6128137;28;20052;-89
2022/06/20 00:57:11;;;;;;;7.07;3.08;;;;;;;13.67;100.00;100276.88;6130905;28;20050;-90
2022/06/20 01:00:22;;;;;;;8.65;3.38;;;;;;;13.70;100.00;100271.38;6132916;28;20114;-89
2022/06/20 01:03:28;;;;;;;4.95;3.40;;;;;;;13.70;100.00;100279.19;6126218;28;20051;-90
2022/06/20 01:06:37;;;;;;;5.07;3.30;;;;;;;13.70;100.00;100285.19;6127299;28;20085;-89
2022/06/20 01:09:44;;;;;;;5.55;3.28;;;;;;;13.76;100.00;100294.19;6123399;28;20565;-88
2022/06/20 01:13:11;;;;;;;6.10;3.10;;;;;;;13.73;100.00;100284.91;6134205;28;20786;-88
2022/06/20 01:16:30;;;;;;;4.40;3.25;;;;;;;13.71;100.00;100275.59;6141698;28;20039;-88
2022/06/20 01:19:38;;;;;;;4.72;2.95;;;;;;;13.71;100.00;100271.25;6127171;28;20871;-88
2022/06/20 01:23:07;;;;;;;5.97;3.38;;;;;;;13.68;100.00;100258.50;6139067;28;20071;-87
2022/06/20 01:26:41;;;;;;;5.50;3.05;;;;;;;13.69;100.00;100269.72;6129646;28;20055;-87
2022/06/20 01:29:43;;;;;;;6.90;3.33;;;;;;;13.70;100.00;100269.59;6119515;28;20520;-87
2022/06/20 01:33:00;;;;;;;7.18;3.47;;;;;;;13.74;100.00;100263.13;6126126;28;20047;-87
2022/06/20 01:39:26;;;;;;;7.85;3.58;;;;;;;13.72;100.00;100279.84;6128525;28;20042;-87
2022/06/20 01:42:29;;;;;;;5.80;3.40;;;;;;;13.75;100.00;100269.16;6123956;28;20043;-87
2022/06/20 01:48:54;;;;;;;;;;;;;;;13.90;100.00;100306.69;6116375;28;20055;-87
2022/06/20 01:52:22;;;;;;;5.10;3.13;;;;;;;13.78;100.00;100303.47;6127301;28;19968;-88
2022/06/20 01:55:25;;;;;;;7.43;3.28;;;;;;;13.69;100.00;100290.53;6119331;28;20055;-89
2022/06/20 01:58:39;;;;;;;7.45;3.45;;;;;;;13.64;100.00;100282.34;6131640;28;20645;-90
2022/06/20 02:01:41;;;;;;;5.20;3.40;;;;;;;13.60;100.00;100219.44;6119991;28;20047;-89
2022/06/20 02:04:44;;;;;;;5.55;3.30;;;;;;;13.63;100.00;100200.09;6132298;28;20126;-89
2022/06/20 02:07:47;;;;;;;7.03;3.42;;;;;;;13.72;100.00;100209.63;6134026;28;20142;-89
2022/06/20 02:11:12;;;;;;;6.85;3.60;;;;;;;13.77;100.00;100267.22;6129306;28;20058;-89
2022/06/20 02:14:31;;;;;;;9.10;3.70;;;;;;;13.67;100.00;100292.50;6136763;28;20049;-89
2022/06/20 02:17:37;;;;;;;7.03;3.42;;;;;;;13.53;100.00;100296.38;6133072;28;20481;-88
2022/06/20 02:20:51;;;;;;;6.53;3.42;;;;;;;13.52;100.00;100279.97;6124867;28;20427;-89
2022/06/20 02:24:01;;;;;;;4.43;3.10;;;;;;;13.49;100.00;100259.47;6119194;28;20046;-90
2022/06/20 02:27:09;;;;;;;7.63;3.67;;;;;;;13.53;100.00;100241.78;6127323;28;20118;-88
2022/06/20 02:30:12;;;;;;;6.93;3.63;;;;;;;13.53;100.00;100237.41;6128740;28;20051;-89
2022/06/20 02:33:18;;;;;;;6.93;3.60;;;;;;;13.53;100.00;100232.19;6137634;28;20031;-88
2022/06/20 02:36:21;;;;;;;6.32;3.25;;;;;;;13.51;100.00;100254.91;6128011;28;20047;-88
2022/06/20 02:39:23;;;;;;;5.95;3.28;;;;;;;13.52;100.00;100253.16;6130444;28;20490;-87
2022/06/20 02:42:32;;;;;;;7.95;4.25;;;;;;;13.54;100.00;100287.66;6128785;28;20149;-88
2022/06/20 02:45:37;;;;;;;9.73;3.55;;;;;;;13.51;100.00;100275.72;6122623;28;20089;-87
2022/06/20 02:48:43;;;;;;;4.65;3.30;;;;;;;13.40;100.00;100270.75;6132875;28;20047;-87
2022/06/20 02:51:51;;;;;;;8.63;3.42;;;;;;;13.40;100.00;100275.94;6131220;28;20054;-87
2022/06/20 02:54:54;;;;;;;7.95;3.42;;;;;;;13.38;100.00;100285.66;6128368;28;20043;-87
2022/06/20 02:58:00;;;;;;;4.90;3.30;;;;;;;13.34;100.00;100331.09;6126327;28;20425;-87
2022/06/20 03:01:07;;;;;;;7.10;3.83;;;;;;;13.30;100.00;100340.97;6123698;28;20834;-88
2022/06/20 03:04:11;;;;;;;5.32;3.17;;;;;;;13.31;100.00;100329.59;6127466;28;20040;-88
2022/06/20 03:07:16;;;;;;;4.53;3.20;;;;;;;13.26;100.00;100313.59;6118979;28;20043;-88
2022/06/20 03:10:33;;;;;;;6.18;3.13;;;;;;;13.22;100.00;100320.06;6112345;29;20157;-90
2022/06/20 03:13:37;;;;;;;7.43;3.35;;;;;;;13.12;100.00;100338.28;6129843;28;20054;-88
2022/06/20 03:16:41;;;;;;;7.80;3.40;;;;;;;13.08;100.00;100352.53;6128936;28;20513;-92
2022/06/20 03:19:48;;;;;;;9.52;3.80;;;;;;;13.05;100.00;100355.41;6117474;28;20058;-89
2022/06/20 03:23:01;;;;;;;6.95;4.10;;;;;;;13.01;100.00;100389.59;6119999;28;20047;-91
2022/06/20 03:26:08;;;;;;;8.45;3.60;;;;;;;12.97;100.00;100391.69;6117639;28;20055;-91
2022/06/20 03:29:14;;;;;;;6.97;3.70;;;;;;;12.97;100.00;100391.69;6133424;28;20114;-90
2022/06/20 03:32:16;;;;;;;7.20;3.42;;;;;;;12.96;100.00;100379.63;6129246;28;20035;-91
2022/06/20 03:35:18;;;;;;;9.27;3.83;;;;;;;12.91;100.00;100381.81;6126641;28;20044;-91
2022/06/20 03:38:23;;;;;;;8.40;3.97;;;;;;;12.90;100.00;100391.41;6132860;28;20082;-90
2022/06/20 03:41:26;;;;;;;7.03;3.97;;;;;;;12.93;100.00;100422.28;6116874;28;20051;-91
2022/06/20 03:44:34;;;;;;;10.68;4.55;;;;;;;12.91;100.00;100423.41;6126074;28;20089;-92
2022/06/20 03:47:36;;;;;;;6.40;3.92;;;;;;;12.95;100.00;100414.38;6134371;28;20044;-91
2022/06/20 03:50:54;;;;;;;6.40;3.60;;;;;;;12.86;100.00;100415.19;6132189;28;20047;-90
2022/06/20 03:54:03;;;;;;;14.68;3.50;;;;;;;12.83;100.00;100411.09;6131603;28;20122;-90
2022/06/20 03:57:31;;;;;;;9.20;3.72;;;;;;;12.79;100.00;100395.94;6135292;28;20043;-92
2022/06/20 04:00:56;;;;;;;9.88;3.70;;;;;;;12.83;100.00;100392.09;6117091;28;20043;-92
2022/06/20 04:04:37;;;;;;;9.13;3.35;;;;;;;12.86;100.00;100382.25;6128253;28;20048;-94
2022/06/20 04:07:42;;;;;;;;;;;;;;;12.99;100.00;100368.13;6120133;28;20544;-93
2022/06/20 04:11:03;;;;;;;6.25;3.53;;;;;;;12.97;100.00;100352.69;6126712;28;20230;-94
2022/06/20 04:14:13;;;;;;;;;;;;;;;13.01;100.00;100353.22;6124910;28;20090;-94
2022/06/20 04:20:58;;;;;;;5.35;3.30;;;;;;;13.10;100.00;100319.41;6138219;28;20078;-93
2022/06/20 04:24:23;;;;;;;7.50;2.92;;;;;;;13.10;100.00;100298.63;6133425;28;20047;-94
2022/06/20 04:27:43;;;;;;;5.63;3.20;;;;;;;13.12;100.00;100288.09;6126705;28;20051;-95
2022/06/20 04:30:53;;;;;;;8.38;3.13;;;;;;;13.13;100.00;100279.31;6135432;28;20050;-93
2022/06/20 04:34:15;;;;;;;4.63;2.85;;;;;;;13.12;100.00;100246.53;6127121;28;20102;-92
2022/06/20 04:37:35;;;;;;;8.27;3.78;;;;;;;13.03;100.00;100224.81;6125530;28;20039;-92
2022/06/20 04:40:59;;;;;;;8.10;3.17;;;;;;;13.04;100.00;100194.44;6120895;28;20422;-92
2022/06/20 04:44:19;;;;;;;6.03;3.67;;;;;;;13.07;100.00;100173.38;6129143;28;20044;-93
2022/06/20 04:47:47;;;;;;;10.27;3.55;;;;;;;13.11;100.00;100143.53;6128843;28;20058;-93
2022/06/20 04:51:00;;;;;;;6.60;3.35;;;;;;;13.11;100.00;100128.75;6145693;28;20058;-92
2022/06/20 04:54:04;;;;;;;9.40;3.05;;;;;;;13.14;100.00;100122.44;6107068;28;20044;-92
2022/06/20 04:57:11;;;;;;;7.28;3.55;;;;;;;13.10;100.00;100110.72;6137760;28;20159;-93
2022/06/20 05:00:28;;;;;;;6.88;3.60;;;;;;;13.12;100.00;100116.59;6137711;28;20039;-92
2022/06/20 05:03:37;;;;;;;6.53;3.58;;;;;;;13.12;100.00;100108.78;6145322;28;20353;-91
2022/06/20 05:06:41;;;;;;;7.55;3.47;;;;;;;13.20;100.00;100105.44;6136029;28;20058;-90
2022/06/20 05:10:02;;;;;;;8.07;3.80;;;;;;;13.12;100.00;100111.38;6136176;28;20043;-91
2022/06/20 05:13:16;;;;;;;7.38;3.03;;;;;;;13.04;100.00;100117.31;6135845;28;20051;-91
2022/06/20 05:16:25;;;;;;;8.48;3.00;;;;;;;13.05;100.00;100112.94;6134729;28;20174;-91
2022/06/20 05:19:31;;;;;;;7.90;3.20;;;;;;;13.01;100.00;100122.78;6134589;28;20047;-89
2022/06/20 05:22:43;;;;;;;7.07;3.33;;;;;;;13.01;100.00;100122.78;6126892;28;20040;-89
2022/06/20 05:25:45;;;;;;;8.60;3.08;;;;;;;13.07;100.00;100122.22;6133173;28;20283;-89
2022/06/20 05:28:50;;;;;;;6.88;2.95;;;;;;;13.25;100.00;100124.00;6133265;28;20050;-90
2022/06/20 05:31:57;;;;;;;7.57;2.50;;;;;;;13.42;100.00;100141.41;6143176;28;20062;-88
2022/06/20 05:35:08;;;;;;;9.63;3.05;;;;;;;13.54;100.00;100176.63;6132594;28;20054;-89
2022/06/20 05:38:26;;;;;;;9.68;3.05;;;;;;;13.52;100.00;100190.75;6131537;28;20039;-89
2022/06/20 05:41:28;;;;;;;9.85;2.97;;;;;;;13.50;100.00;100223.88;6116394;28;20047;-88
2022/06/20 05:44:31;;;;;;;7.25;2.85;;;;;;;13.45;100.00;100232.13;6125610;28;20166;-89
2022/06/20 05:47:35;;;;;;;6.68;2.97;;;;;;;13.39;100.00;100245.72;6133081;28;20424;-88
2022/06/20 05:50:48;;;;;;;5.78;3.00;;;;;;;13.35;100.00;100247.78;6120999;28;20402;-88
2022/06/20 05:54:23;;;;;;;9.10;2.58;;;;;;;13.37;100.00;100268.44;6116661;28;20054;-89
2022/06/20 05:57:30;;;;;;;6.53;2.38;;;;;;;13.28;100.00;100269.31;6081676;29;20063;-88
2022/06/20 06:00:33;;;;;;;7.28;2.40;;;;;;;13.29;100.00;100279.56;6082024;29;20549;-88
2022/06/20 06:04:16;;;;;;;10.88;2.97;;;;;;;13.20;100.00;100297.78;6072803;29;20430;-89
2022/06/20 06:07:26;;;;;;;6.22;1.98;;;;;;;13.20;100.00;100300.38;6084584;29;20063;-93
2022/06/20 06:10:43;;;;;;;10.98;2.97;;;;;;;13.11;100.00;100302.84;6085178;29;20414;-95
2022/06/20 06:14:20;;;;;;;7.65;2.50;;;;;;;13.02;100.00;100315.88;6080264;29;20060;-92
2022/06/20 06:17:34;;;;;;;10.63;2.47;;;;;;;12.93;100.00;100312.38;6094349;29;20419;-92
2022/06/20 06:20:56;;;;;;;3.53;2.05;;;;;;;12.97;100.00;100333.66;6084932;29;20427;-91
2022/06/20 06:23:59;;;;;;;9.77;2.35;;;;;;;12.93;100.00;100348.75;6089478;29;20044;-91
2022/06/20 06:27:04;;;;;;;10.07;2.47;;;;;;;13.03;100.00;100369.50;6090549;29;20052;-92
2022/06/20 06:30:26;;;;;;;7.47;2.05;;;;;;;13.15;100.00;100389.97;6088020;29;20052;-92
2022/06/20 06:33:35;;;;;;;9.68;2.22;;;;;;;13.22;100.00;100410.22;6097693;28;20396;-92
2022/06/20 06:37:02;;;;;;;4.78;2.00;;;;;;;13.18;100.00;100421.84;6136151;28;20413;-92
2022/06/20 06:40:14;;;;;;;9.02;1.85;;;;;;;13.06;100.00;100416.00;6132316;28;20043;-91
2022/06/20 06:43:28;;;;;;;5.22;2.05;;;;;;;13.06;100.00;100414.19;6138991;28;20040;-91
2022/06/20 06:46:46;;;;;;;4.45;1.83;;;;;;;13.10;100.00;100401.75;6126309;28;20679;-91
2022/06/20 06:49:53;;;;;;;5.32;1.88;;;;;;;13.21;100.00;100404.19;6137129;28;20107;-91
2022/06/20 06:53:20;;;;;;;9.13;2.25;;;;;;;13.45;100.00;100382.13;6136527;28;20054;-89
2022/06/20 06:56:35;;;;;;;5.35;2.38;;;;;;;13.70;100.00;100381.44;6141992;28;20043;-90
2022/06/20 06:59:42;;;;;;;7.57;2.20;;;;;;;13.93;100.00;100362.81;6134256;28;20051;-89
2022/06/20 07:03:05;;;;;;;6.32;2.50;;;;;;;14.15;100.00;100365.00;6127679;28;20040;-89
2022/06/20 07:06:28;;;;;;;8.23;2.08;;;;;;;14.23;100.00;100361.66;6119549;28;20134;-89
2022/06/20 07:09:46;;;;;;;6.68;2.08;;;;;;;14.35;100.00;100360.44;6130403;28;20078;-89
2022/06/20 07:12:51;;;;;;;6.68;1.98;;;;;;;14.58;100.00;100354.81;6135707;28;20054;-89
2022/06/20 07:15:58;;;;;;;7.38;1.98;;;;;;;14.71;100.00;100349.19;6121946;28;20615;-90
2022/06/20 07:19:01;;;;;;;7.95;2.45;;;;;;;14.77;100.00;100339.00;6114302;28;20097;-89
2022/06/20 07:22:03;;;;;;;9.00;2.42;;;;;;;14.86;100.00;100330.25;6118778;28;20039;-88
2022/06/20 07:25:12;;;;;;;5.18;2.40;;;;;;;14.82;100.00;100326.31;6127901;28;20776;-89
2022/06/20 07:29:01;;;;;;;7.80;2.10;;;;;;;14.88;100.00;100321.47;6130977;28;20046;-89
2022/06/20 07:32:27;;;;;;;7.57;2.50;;;;;;;14.95;100.00;100306.84;6105496;29;20052;-88
2022/06/20 07:35:36;;;;;;;8.48;2.75;;;;;;;15.06;100.00;100307.41;6109558;29;20044;-88
2022/06/20 07:39:01;;;;;;;6.43;2.97;;;;;;;15.37;100.00;100316.47;6100809;29;20051;-88
2022/06/20 07:42:32;;;;;;;8.75;3.15;;;;;;;15.60;100.00;100320.16;6089130;29;20055;-88
2022/06/20 07:45:50;;;;;;;8.82;2.60;;;;;;;15.65;100.00;100324.88;6033578;29;20065;-88
2022/06/20 07:48:58;;;;;;;7.72;2.42;;;;;;;15.67;100.00;100323.75;6021753;29;20060;-86
2022/06/20 07:52:08;;;;;;;8.18;2.67;;;;;;;15.51;100.00;100329.75;6020280;29;20057;-88
2022/06/20 07:55:18;;;;;;;7.07;2.35;;;;;;;15.66;100.00;100322.13;6024030;29;20065;-88
2022/06/20 07:58:27;;;;;;;9.07;2.40;;;;;;;15.79;100.00;100326.09;6026494;29;20057;-88
2022/06/20 08:01:42;;;;;;;7.55;2.17;;;;;;;15.77;100.00;100343.69;6018808;29;20053;-90
2022/06/20 08:04:46;;;;;;;8.95;2.60;;;;;;;15.75;100.00;100349.09;6020741;29;20065;-90
2022/06/20 08:08:10;;;;;;;8.07;3.22;;;;;;;15.86;100.00;100335.72;6023465;29;20372;-91
2022/06/20 08:11:40;;;;;;;8.35;2.83;;;;;;;15.80;100.00;100343.38;6024270;29;20064;-91
2022/06/20 08:15:16;;;;;;;7.53;2.47;;;;;;;15.75;100.00;100336.06;6040058;29;20524;-91
2022/06/20 08:18:18;;;;;;;10.43;2.78;;;;;;;15.61;100.00;100329.59;6045790;29;20078;-91
2022/06/20 08:21:20;;;;;;;8.13;2.72;;;;;;;15.72;100.00;100344.19;6071774;28;20055;-92
2022/06/20 08:24:32;;;;;;;8.02;3.13;;;;;;;15.81;100.00;100345.84;6128174;28;20071;-91
2022/06/20 08:27:53;;;;;;;8.18;2.67;;;;;;;15.81;100.00;100340.63;6136771;28;20137;-94
2022/06/20 08:31:08;;;;;;;6.82;2.50;;;;;;;15.95;100.00;100347.03;6127882;28;20043;-94
2022/06/20 08:34:25;;;;;;;8.70;3.13;;;;;;;16.15;100.00;100358.81;6130409;28;20047;-96
2022/06/20 08:37:37;;;;;;;10.40;3.20;;;;;;;16.25;100.00;100368.28;6125761;28;20449;-93
2022/06/20 08:41:16;;;;;;;6.07;2.95;;;;;;;16.33;100.00;100347.38;6122979;28;20056;-96
2022/06/20 08:44:55;;;;;;;8.98;3.50;;;;;;;16.36;100.00;100362.72;6136175;28;20066;-96
2022/06/20 08:48:25;;;;;;;8.20;3.13;;;;;;;16.44;100.00;100361.91;6146314;28;20723;-96
2022/06/20 08:52:08;;;;;;;6.32;2.70;;;;;;;16.73;100.00;100371.88;6138415;28;20481;-96
2022/06/20 08:55:41;;;;;;;6.93;2.80;;;;;;;17.01;100.00;100364.47;6136764;28;20043;-96
2022/06/20 08:59:08;;;;;;;7.95;3.20;;;;;;;17.03;100.00;100372.19;6129925;28;20682;-96
2022/06/20 09:02:35;;;;;;;7.63;2.70;;;;;;;17.07;100.00;100369.06;6148126;28;20750;-96
2022/06/20 09:06:07;;;;;;;10.05;3.08;;;;;;;17.37;100.00;100369.31;6141492;28;20047;-91
2022/06/20 09:09:51;;;;;;;8.48;2.60;;;;;;;17.49;100.00;100364.50;6136428;28;20134;-96
2022/06/20 09:13:13;;;;;;;6.25;2.35;;;;;;;17.51;100.00;100355.47;6146271;28;20043;-96
2022/06/20 09:16:32;;;;;;;6.63;2.50;;;;;;;17.58;100.00;100350.38;6144945;28;20035;-96
2022/06/20 09:19:49;;;;;;;6.10;2.47;;;;;;;17.67;100.00;100351.19;6136688;28;20054;-96
2022/06/20 09:23:26;;;;;;;4.10;2.33;;;;;;;17.88;100.00;100345.34;6137221;28;20233;-96
2022/06/20 09:26:52;;;;;;;5.75;2.55;;;;;;;17.96;100.00;100356.59;6123832;28;20530;-96
2022/06/20 09:30:10;;;;;;;6.68;2.17;;;;;;;17.83;100.00;100365.00;6144249;28;20059;-96
2022/06/20 09:33:37;;;;;;;8.05;2.33;;;;;;;17.60;100.00;100359.69;6113004;28;20050;-96
2022/06/20 09:37:07;;;;;;;6.68;2.28;;;;;;;17.61;100.00;100355.28;6127711;28;20194;-96
2022/06/20 09:40:44;;;;;;;6.75;2.25;;;;;;;17.66;100.00;100352.97;6124912;28;20050;-96
2022/06/20 09:44:05;;;;;;;6.72;2.10;;;;;;;17.90;100.00;100351.22;6140547;28;20063;-96
2022/06/20 09:47:40;;;;;;;5.93;2.10;;;;;;;18.00;100.00;100351.81;6129495;28;20050;-96
2022/06/20 09:51:28;;;;;;;6.15;2.05;;;;;;;17.92;100.00;100351.88;6151068;28;20147;-96
2022/06/20 09:54:57;;;;;;;3.88;1.80;;;;;;;17.84;100.00;100356.19;6133777;28;20087;-96
2022/06/20 09:58:37;;;;;;;8.37;2.30;;;;;;;17.87;100.00;100352.41;6144784;28;20058;-96
2022/06/20 10:02:11;;;;;;;2.65;2.00;;;;;;;18.18;100.00;100352.34;6144872;28;20295;-96
2022/06/20 10:05:25;;;;;;;9.57;2.67;;;;;;;18.68;100.00;100352.75;6149482;28;20051;-96
2022/06/20 10:08:40;;;;;;;4.85;2.17;;;;;;;18.55;93.29;100352.53;6147309;28;20044;-96
2022/06/20 10:12:08;;;;;;;6.95;2.42;;;;;;;18.68;100.00;100345.72;6143905;28;20056;-96
2022/06/20 10:15:19;;;;;;;7.15;2.40;;;;;;;18.80;100.00;100347.91;6138364;28;20042;-96
2022/06/20 10:18:41;;;;;;;4.95;2.33;;;;;;;18.78;96.30;100352.53;6156806;28;20051;-96
2022/06/20 10:26:01;;;;;;;4.72;2.38;;;;;;;18.71;94.71;100373.38;6240685;23;20054;-96
2022/06/20 10:29:44;;;;;;;3.50;2.20;;;;;;;18.77;95.98;100359.56;6157066;29;20043;-96
2022/06/20 10:32:57;;;;;;;4.78;2.10;;;;;;;18.88;96.22;100360.94;6144990;28;20050;-90
2022/06/20 10:36:47;;;;;;;5.60;2.17;;;;;;;18.84;87.03;100367.56;6146444;28;20059;-96
2022/06/20 10:43:49;;;;;;;4.47;2.20;;;;;;;18.42;90.79;100372.31;6103191;29;20407;-96
2022/06/20 10:47:12;;;;;;;6.30;2.03;;;;;;;18.14;92.71;100369.41;6106169;29;20059;-96
2022/06/20 10:50:37;;;;;;;7.13;2.22;;;;;;;18.36;92.23;100386.13;6097969;29;20043;-96
2022/06/20 10:54:31;;;;;;;4.43;1.85;;;;;;;19.21;84.24;100389.47;6593782;23;20085;31
2022/06/20 10:57:56;;;;;;;3.47;2.00;;;;;;;19.73;69.13;100394.63;6145563;29;20043;-96
2022/06/20 11:01:24;;;;;;;4.43;2.10;;;;;;;20.01;71.62;100399.16;6113467;29;20079;-96
2022/06/20 11:04:48;;;;;;;4.30;1.83;;;;;;;19.97;68.74;100393.47;6127454;29;20055;-96
2022/06/20 11:08:02;;;;;;;2.42;1.73;;;;;;;20.03;69.11;100398.97;6122244;29;20049;-96
2022/06/20 11:11:31;;;;;;;5.35;2.13;;;;;;;20.07;69.80;100400.22;6118815;29;20441;-96
2022/06/20 11:14:58;;;;;;;3.70;1.75;;;;;;;20.22;61.69;100396.56;6096537;29;20075;-96
2022/06/20 11:18:32;;;;;;;7.38;2.20;;;;;;;19.66;66.73;100396.31;6124567;29;20055;-96
2022/06/20 11:21:53;;;;;;;3.78;1.60;;;;;;;18.88;68.52;100379.28;6115554;29;20139;-95
2022/06/20 11:25:12;;;;;;;5.00;1.65;;;;;;;18.50;73.84;100381.91;6121759;29;20051;-96
2022/06/20 11:28:45;;;;;;;3.35;1.48;;;;;;;18.57;70.86;100384.66;6119696;29;20076;-96
2022/06/20 11:32:23;;;;;;;5.10;1.75;;;;;;;18.96;68.70;100374.00;6102677;29;20048;-96
2022/06/20 11:35:38;;;;;;;4.18;1.55;;;;;;;19.44;64.06;100379.69;6125994;29;20604;-96
2022/06/20 11:39:11;;;;;;;3.50;1.60;;;;;;;19.56;62.94;100385.28;6123549;29;20119;-94
2022/06/20 11:42:46;;;;;;;4.32;1.67;;;;;;;19.28;61.50;100377.25;6120368;29;20055;-94
2022/06/20 11:46:20;;;;;;;3.10;1.85;;;;;;;18.98;65.62;100376.41;6117972;29;20147;-95
2022/06/20 11:49:41;;;;;;;3.03;1.52;;;;;;;18.69;67.37;100365.69;6117408;29;20070;-96
2022/06/20 11:53:17;;;;;;;3.47;2.10;;;;;;;18.74;66.63;100359.91;6124424;29;20059;-93
2022/06/20 11:56:43;;;;;;;2.42;1.67;;;;;;;19.08;65.40;100375.19;6108620;29;20434;-96
2022/06/20 12:00:09;;;;;;;3.55;1.90;;;;;;;19.52;65.17;100366.44;6119233;29;20475;-96
2022/06/20 12:03:14;;;;;;;4.30;1.60;;;;;;;19.74;60.80;100367.34;6108115;29;20048;-94
2022/06/20 12:06:25;;;;;;;3.83;1.70;;;;;;;19.67;62.00;100368.22;6116886;29;20054;-96
2022/06/20 12:09:55;;;;;;;3.10;1.73;;;;;;;19.95;62.92;100371.81;6116255;29;20047;-96
2022/06/20 12:13:35;;;;;;;4.87;1.87;;;;;;;20.71;55.90;100358.13;6133627;29;20032;-96
2022/06/20 12:16:58;;;;;;;2.95;1.45;;;;;;;20.43;57.03;100364.16;6126654;29;20582;-96
2022/06/20 12:23:45;;;;;;;4.80;1.77;;;;;;;19.32;61.05;100370.63;6110880;29;20047;-95
2022/06/20 12:26:49;;;;;;;6.00;2.25;;;;;;;19.04;59.65;100373.91;6127641;29;20195;-94
2022/06/20 12:29:51;;;;;;;2.60;1.60;;;;;;;18.92;59.23;100386.63;6116697;29;20077;-93
2022/06/20 12:32:56;;;;;;;3.53;2.05;;;;;;;19.09;61.21;100382.03;6120860;29;20048;-94
2022/06/20 12:36:03;;;;;;;6.43;2.08;;;;;;;19.44;60.59;100384.94;6115245;29;20043;-94
2022/06/20 12:39:43;;;;;;;3.25;1.70;;;;;;;19.74;58.53;100377.03;6114738;29;20059;-93
2022/06/20 12:43:04;;;;;;;4.70;1.90;;;;;;;20.11;58.35;100380.47;6118247;28;20139;-92
2022/06/20 12:46:57;;;;;;;3.88;2.13;;;;;;;19.90;57.16;100378.59;6105009;29;20418;-92
2022/06/20 12:50:18;;;;;;;4.88;2.00;;;;;;;19.71;56.16;100372.97;6029769;29;20841;-94
2022/06/20 12:53:39;;;;;;;3.28;1.70;;;;;;;20.11;59.26;100369.94;6036469;29;20136;-95
2022/06/20 12:57:24;;;;;;;5.47;1.92;;;;;;;21.10;57.93;100363.88;6048278;29;20060;-95
2022/06/20 13:00:38;;;;;;;5.07;2.13;;;;;;;21.66;54.97;100361.91;6053149;29;20060;-95
2022/06/20 13:04:19;;;;;;;4.05;2.20;;;;;;;22.18;49.08;100374.56;6040791;29;20049;-93
2022/06/20 13:07:56;;;;;;;4.88;1.98;;;;;;;22.66;47.41;100359.41;6022635;29;20050;-96
2022/06/20 13:11:35;;;;;;;2.92;1.73;;;;;;;22.36;50.47;100353.75;6058093;29;20059;-95
2022/06/20 13:15:02;;;;;;;6.80;2.30;;;;;;;22.26;50.76;100350.66;6058996;29;20057;-93
2022/06/20 13:18:15;;;;;;;5.15;2.00;;;;;;;22.77;48.21;100363.25;6065869;29;20068;-96
2022/06/20 13:21:35;;;;;;;6.05;2.90;;;;;;;22.68;46.08;100352.09;6044821;29;20861;-94
2022/06/20 13:24:59;;;;;;;;;;;;;;;22.44;46.67;100350.91;6042604;29;20439;-92
2022/06/20 13:28:09;;;;;;;3.60;2.10;;;;;;;22.22;47.52;100357.38;6120392;29;19926;-94
2022/06/20 13:31:31;;;;;;;4.50;1.85;;;;;;;22.25;47.67;100357.78;6112959;29;20417;-95
2022/06/20 13:35:01;;;;;;;10.70;1.95;;;;;;;21.94;48.49;100371.50;6123387;29;20043;-95
2022/06/20 13:38:40;;;;;;;4.33;1.80;;;;;;;21.47;50.71;100381.09;6114314;29;20051;-94
2022/06/20 13:42:03;;;;;;;4.93;2.35;;;;;;;21.04;49.18;100361.00;6116276;29;20086;-95
2022/06/20 13:45:22;;;;;;;6.35;2.60;;;;;;;20.95;51.84;100374.50;6117038;29;20047;-95
2022/06/20 13:48:49;;;;;;;5.53;1.90;;;;;;;21.60;50.50;100367.97;6116231;29;20103;-95
2022/06/20 13:52:28;;;;;;;4.95;1.90;;;;;;;21.79;49.99;100387.50;6125985;28;20054;-94
2022/06/20 13:55:45;;;;;;;6.45;2.10;;;;;;;21.47;49.66;100386.34;6121704;29;20057;-96
2022/06/20 13:59:07;;;;;;;3.95;2.20;;;;;;;21.09;51.23;100391.97;6123249;29;20046;-95
2022/06/20 14:02:28;;;;;;;6.47;1.80;;;;;;;20.79;52.90;100384.28;6122831;29;20088;-96
2022/06/20 14:05:33;;;;;;;4.90;1.95;;;;;;;20.72;52.07;100401.03;6123360;29;20054;-94
2022/06/20 14:08:42;;;;;;;5.03;1.92;;;;;;;21.21;52.26;100392.25;6116897;29;20063;-92
2022/06/20 14:11:57;;;;;;;3.88;2.00;;;;;;;22.45;46.41;100393.91;6111948;29;20762;-94
2022/06/20 14:15:18;;;;;;;5.03;1.80;;;;;;;23.07;45.94;100387.38;6127297;29;20094;-96
2022/06/20 14:18:28;;;;;;;6.38;1.90;;;;;;;23.14;45.97;100390.81;6121643;29;20921;-96
2022/06/20 14:21:34;;;;;;;4.78;2.15;;;;;;;23.33;44.97;100383.03;6128452;29;20050;-96
2022/06/20 14:24:40;;;;;;;4.70;1.98;;;;;;;23.42;45.07;100390.50;6134255;29;20051;-96
2022/06/20 14:27:47;;;;;;;7.10;2.03;;;;;;;23.21;45.22;100396.91;6127347;28;20052;-94
2022/06/20 14:30:57;;;;;;;4.30;1.60;;;;;;;22.76;44.46;100391.47;6124811;28;20099;-95
2022/06/20 14:34:22;;;;;;;5.10;1.77;;;;;;;22.15;43.34;100404.78;6108703;29;20356;-95
2022/06/20 14:37:27;;;;;;;3.33;1.83;;;;;;;21.74;48.53;100395.19;6117063;29;20044;-95
2022/06/20 14:40:52;;;;;;;5.47;1.77;;;;;;;21.72;47.29;100395.34;6127120;29;20040;-96
2022/06/20 14:43:57;;;;;;;5.90;1.67;;;;;;;22.18;46.60;100393.84;6146393;28;20039;-96
2022/06/20 14:47:35;;;;;;;3.53;1.80;;;;;;;22.80;45.47;100391.84;6136173;29;20075;-96
2022/06/20 14:50:48;;;;;;;4.93;1.80;;;;;;;22.54;46.86;100390.06;6127575;29;20063;-96
2022/06/20 14:54:11;;;;;;;4.55;1.73;;;;;;;21.88;43.45;100394.19;6128930;29;20569;-96
2022/06/20 14:57:34;;;;;;;4.70;1.50;;;;;;;21.39;47.44;100394.41;6126013;29;20044;-96
2022/06/20 15:00:45;;;;;;;4.35;1.40;;;;;;;21.11;47.10;100387.34;6120080;29;20070;-96
2022/06/20 15:04:25;;;;;;;1.85;1.23;;;;;;;20.73;48.80;100395.59;6128996;28;20061;-95
2022/06/20 15:07:34;;;;;;;4.03;1.60;;;;;;;20.37;49.95;100391.22;6106229;29;20089;-94
2022/06/20 15:10:50;;;;;;;3.08;1.40;;;;;;;20.37;49.72;100382.50;6106293;29;20054;-95
2022/06/20 15:14:22;;;;;;;2.88;1.13;;;;;;;20.48;49.76;100396.97;6104105;29;20039;-95
2022/06/20 15:17:30;;;;;;;4.07;1.15;;;;;;;20.29;51.46;100398.41;6114633;29;20052;-95
2022/06/20 15:20:35;;;;;;;2.13;1.05;;;;;;;20.05;50.26;100402.22;6104458;29;20040;-95
2022/06/20 15:23:49;;;;;;;2.42;1.05;;;;;;;19.95;51.72;100398.09;6118886;28;20043;-94
2022/06/20 15:27:30;;;;;;;2.90;1.40;;;;;;;20.07;51.91;100406.28;6105256;29;20058;-96
2022/06/20 15:30:38;;;;;;;2.97;1.00;;;;;;;20.18;49.34;100403.19;6076910;29;20044;-94